createdAt,value
2022-12-01T00:01:08.959Z,14.43
2022-12-01T00:03:36.274Z,15.60
2022-12-01T00:06:18.068Z,14.23
2022-12-01T00:09:06.531Z,16.33
2022-12-01T00:11:35.300Z,15.40
2022-12-01T00:14:02.416Z,15.90
2022-12-01T00:16:29.268Z,14.60
2022-12-01T00:18:56.295Z,14.40
2022-12-01T00:21:24.782Z,16.60
2022-12-01T00:23:54.298Z,14.70
2022-12-01T00:26:22.143Z,15.73
2022-12-01T00:28:54.052Z,15.00
2022-12-01T00:31:21.372Z,15.60
2022-12-01T00:33:48.185Z,16.77
2022-12-01T00:36:14.997Z,14.93
2022-12-01T00:38:42.122Z,15.80
2022-12-01T00:41:09.260Z,15.93
2022-12-01T00:43:36.050Z,15.03
2022-12-01T00:46:03.134Z,14.00
2022-12-01T00:48:29.980Z,15.20
2022-12-01T00:50:56.781Z,15.50
2022-12-01T00:53:24.684Z,17.87
2022-12-01T00:55:53.915Z,15.97
2022-12-01T00:58:21.404Z,14.30
2022-12-01T01:00:48.333Z,14.07
2022-12-01T01:03:15.330Z,16.13
2022-12-01T01:05:43.246Z,15.73
2022-12-01T01:08:12.109Z,15.40
2022-12-01T01:13:15.540Z,17.17
2022-12-01T01:15:42.495Z,19.50
2022-12-01T01:18:11.572Z,18.70
2022-12-01T01:20:38.425Z,16.93
2022-12-01T01:23:05.219Z,19.60
2022-12-01T01:25:32.915Z,19.43
2022-12-01T01:27:59.905Z,19.30
2022-12-01T01:30:26.972Z,20.03
2022-12-01T01:32:53.894Z,21.03
2022-12-01T01:35:20.633Z,20.47
2022-12-01T01:37:47.405Z,19.00
2022-12-01T01:40:14.157Z,19.93
2022-12-01T01:42:40.901Z,19.30
2022-12-01T01:45:25.389Z,21.57
2022-12-01T01:47:53.521Z,20.90
2022-12-01T01:50:26.707Z,22.13
2022-12-01T01:53:00.967Z,22.57
2022-12-01T01:55:28.634Z,20.93
2022-12-01T01:57:55.456Z,24.13
2022-12-01T02:00:22.588Z,23.93
2022-12-01T02:02:50.467Z,24.60
2022-12-01T02:05:32.134Z,23.53
2022-12-01T02:08:00.355Z,23.13
2022-12-01T02:10:48.536Z,23.43
2022-12-01T02:13:28.693Z,24.17
2022-12-01T02:16:33.192Z,22.27
2022-12-01T02:19:33.695Z,22.40
2022-12-01T02:22:11.612Z,22.60
2022-12-01T02:24:52.217Z,23.73
2022-12-01T02:27:18.888Z,21.57
2022-12-01T02:29:51.389Z,23.73
2022-12-01T02:32:30.175Z,23.77
2022-12-01T02:35:03.843Z,23.80
2022-12-01T02:37:54.887Z,23.37
2022-12-01T02:40:33.771Z,24.23
2022-12-01T02:43:26.041Z,23.40
2022-12-01T02:46:07.816Z,23.53
2022-12-01T02:48:37.329Z,22.00
2022-12-01T02:51:19.546Z,20.50
2022-12-01T02:53:46.964Z,24.33
2022-12-01T02:56:16.184Z,24.53
2022-12-01T02:58:43.909Z,24.03
2022-12-01T03:01:26.200Z,24.57
2022-12-01T03:04:01.724Z,21.93
2022-12-01T03:07:10.769Z,26.53
2022-12-01T03:10:03.796Z,25.30
2022-12-01T03:13:00.459Z,23.00
2022-12-01T03:15:45.959Z,27.30
2022-12-01T03:18:37.245Z,25.40
2022-12-01T03:21:17.157Z,25.03
2022-12-01T03:23:55.368Z,26.20
2022-12-01T03:26:24.335Z,26.93
2022-12-01T03:28:58.552Z,25.23
2022-12-01T03:31:32.969Z,26.90
2022-12-01T03:34:05.702Z,26.47
2022-12-01T03:36:38.723Z,26.60
2022-12-01T03:39:10.181Z,27.13
2022-12-01T03:41:43.361Z,25.40
2022-12-01T03:44:16.661Z,30.53
2022-12-01T03:46:57.205Z,27.80
2022-12-01T03:49:25.751Z,28.47
2022-12-01T03:52:09.464Z,27.87
2022-12-01T03:55:01.550Z,26.80
2022-12-01T03:57:59.041Z,26.93
2022-12-01T04:00:26.866Z,28.90
2022-12-01T04:02:58.699Z,29.07
2022-12-01T04:05:26.771Z,28.63
2022-12-01T04:07:53.602Z,27.27
2022-12-01T04:10:20.755Z,30.53
2022-12-01T04:12:47.555Z,25.93
2022-12-01T04:15:15.194Z,26.10
2022-12-01T04:17:45.901Z,28.37
2022-12-01T04:20:14.974Z,25.70
2022-12-01T04:22:42.053Z,27.43
2022-12-01T04:25:09.851Z,27.33
2022-12-01T04:27:37.593Z,26.77
2022-12-01T04:30:06.277Z,25.13
2022-12-01T04:32:38.814Z,21.27
2022-12-01T04:35:06.636Z,24.80
2022-12-01T04:37:33.685Z,24.57
2022-12-01T04:40:00.412Z,23.20
2022-12-01T04:42:27.160Z,24.03
2022-12-01T04:44:53.914Z,23.33
2022-12-01T04:47:20.696Z,22.67
2022-12-01T04:49:47.838Z,24.57
2022-12-01T04:52:14.939Z,23.60
2022-12-01T04:54:42.384Z,22.33
2022-12-01T04:57:09.190Z,24.50
2022-12-01T04:59:35.962Z,22.03
2022-12-01T05:02:04.204Z,20.50
2022-12-01T05:04:32.572Z,22.17
2022-12-01T05:06:59.330Z,23.40
2022-12-01T05:09:26.058Z,23.90
2022-12-01T05:11:52.809Z,23.03
2022-12-01T05:14:19.518Z,22.73
2022-12-01T05:16:46.412Z,19.73
2022-12-01T05:19:31.725Z,20.97
2022-12-01T05:21:58.468Z,21.17
2022-12-01T05:24:25.775Z,19.80
2022-12-01T05:26:52.492Z,21.60
2022-12-01T05:29:19.349Z,18.93
2022-12-01T05:31:47.123Z,20.27
2022-12-01T05:34:13.981Z,18.60
2022-12-01T05:36:40.859Z,22.00
2022-12-01T05:39:07.607Z,18.70
2022-12-01T05:41:34.349Z,19.87
2022-12-01T05:44:01.177Z,18.33
2022-12-01T05:46:28.060Z,18.90
2022-12-01T05:48:54.789Z,16.33
2022-12-01T05:51:21.633Z,20.30
2022-12-01T05:53:48.412Z,19.17
2022-12-01T05:56:15.105Z,17.73
2022-12-01T05:58:41.919Z,17.60
2022-12-01T06:01:08.767Z,18.43
2022-12-01T06:03:35.474Z,18.93
2022-12-01T06:06:02.496Z,17.80
2022-12-01T06:08:29.270Z,18.07
2022-12-01T06:10:56.074Z,17.80
2022-12-01T06:13:23.018Z,18.27
2022-12-01T06:15:57.638Z,19.63
2022-12-01T06:18:25.566Z,19.80
2022-12-01T06:20:52.336Z,19.97
2022-12-01T06:23:19.145Z,18.40
2022-12-01T06:25:45.891Z,18.70
2022-12-01T06:28:12.649Z,18.03
2022-12-01T06:30:39.374Z,19.73
2022-12-01T06:33:06.287Z,19.20
2022-12-01T06:35:33.120Z,17.20
2022-12-01T06:37:59.958Z,19.10
2022-12-01T06:40:27.215Z,16.77
2022-12-01T06:42:54.156Z,18.50
2022-12-01T06:45:21.046Z,17.77
2022-12-01T06:47:48.504Z,17.67
2022-12-01T06:50:15.366Z,14.67
2022-12-01T06:52:42.136Z,16.03
2022-12-01T06:55:09.259Z,15.37
2022-12-01T06:57:36.197Z,16.30
2022-12-01T07:00:04.358Z,16.60
2022-12-01T07:02:31.674Z,15.80
2022-12-01T07:04:58.456Z,16.87
2022-12-01T07:07:25.241Z,14.97
2022-12-01T07:09:52.306Z,13.67
2022-12-01T07:12:19.123Z,13.53
2022-12-01T07:14:45.941Z,14.93
2022-12-01T07:17:12.682Z,13.43
2022-12-01T07:19:39.473Z,13.10
2022-12-01T07:22:06.319Z,13.23
2022-12-01T07:24:33.050Z,15.13
2022-12-01T07:26:59.787Z,15.73
2022-12-01T07:29:26.565Z,13.80
2022-12-01T07:31:53.359Z,14.40
2022-12-01T07:34:20.190Z,14.10
2022-12-01T07:36:46.943Z,12.50
2022-12-01T07:39:13.749Z,13.20
2022-12-01T07:41:40.488Z,12.77
2022-12-01T07:44:07.556Z,12.47
2022-12-01T07:46:34.352Z,12.73
2022-12-01T07:49:01.234Z,13.03
2022-12-01T07:51:28.344Z,12.47
2022-12-01T07:53:55.293Z,13.13
2022-12-01T07:56:23.249Z,12.47
2022-12-01T07:58:50.328Z,12.53
2022-12-01T08:01:22.639Z,12.60
2022-12-01T08:03:51.227Z,13.90
2022-12-01T08:06:18.421Z,14.43
2022-12-01T08:08:45.585Z,15.10
2022-12-01T08:11:15.350Z,15.43
2022-12-01T08:13:43.068Z,15.43
2022-12-01T08:16:13.775Z,15.90
2022-12-01T08:18:42.407Z,17.50
2022-12-01T08:21:13.313Z,19.13
2022-12-01T08:23:41.569Z,19.83
2022-12-01T08:26:19.222Z,20.40
2022-12-01T08:28:46.947Z,20.90
2022-12-01T08:31:31.739Z,22.67
2022-12-01T08:33:58.738Z,24.03
2022-12-01T08:36:26.274Z,24.50
2022-12-01T08:38:55.071Z,24.20
2022-12-01T08:41:22.283Z,22.27
2022-12-01T08:43:58.061Z,21.67
2022-12-01T08:46:27.516Z,22.43
2022-12-01T08:48:57.306Z,24.50
2022-12-01T08:51:24.353Z,22.93
2022-12-01T08:53:51.363Z,22.37
2022-12-01T08:56:24.110Z,23.60
2022-12-01T08:58:51.790Z,24.70
2022-12-01T09:01:19.433Z,29.50
2022-12-01T09:03:46.765Z,23.27
2022-12-01T09:06:17.315Z,25.10
2022-12-01T09:08:44.211Z,26.50
2022-12-01T09:11:16.905Z,22.33
2022-12-01T09:13:45.416Z,26.00
2022-12-01T09:16:16.064Z,24.37
2022-12-01T09:18:44.106Z,24.33
2022-12-01T09:21:12.489Z,24.67
2022-12-01T09:23:39.718Z,24.07
2022-12-01T09:26:12.122Z,22.20
2022-12-01T09:28:40.275Z,24.97
2022-12-01T09:31:09.362Z,22.60
2022-12-01T09:33:36.555Z,23.43
2022-12-01T09:36:05.275Z,23.43
2022-12-01T09:38:34.212Z,22.30
2022-12-01T09:41:26.785Z,25.10
2022-12-01T09:44:10.636Z,23.50
2022-12-01T09:46:44.933Z,24.63
2022-12-01T09:49:18.537Z,24.87
2022-12-01T09:51:45.460Z,26.30
2022-12-01T09:54:14.341Z,24.27
2022-12-01T09:56:50.716Z,25.53
2022-12-01T09:59:23.717Z,25.60
2022-12-01T10:01:56.393Z,23.73
2022-12-01T10:04:39.788Z,25.30
2022-12-01T10:07:31.517Z,25.87
2022-12-01T10:10:01.494Z,23.83
2022-12-01T10:12:33.946Z,24.73
2022-12-01T10:15:31.086Z,26.13
2022-12-01T10:18:07.822Z,22.80
2022-12-01T10:20:44.802Z,21.53
2022-12-01T10:23:30.469Z,23.60
2022-12-01T10:25:59.973Z,21.97
2022-12-01T10:28:39.055Z,21.73
2022-12-01T10:31:26.371Z,24.33
2022-12-01T10:34:08.074Z,23.33
2022-12-01T10:36:35.022Z,21.83
2022-12-01T10:39:04.683Z,22.90
2022-12-01T10:41:35.012Z,21.60
2022-12-01T10:44:05.517Z,22.70
2022-12-01T10:46:50.378Z,23.53
2022-12-01T10:49:18.883Z,24.00
2022-12-01T10:51:50.587Z,22.80
2022-12-01T10:54:18.058Z,20.13
2022-12-01T10:56:48.462Z,24.93
2022-12-01T10:59:30.123Z,22.80
2022-12-01T11:01:58.688Z,21.70
2022-12-01T11:04:36.970Z,23.47
2022-12-01T11:07:04.413Z,24.03
2022-12-01T11:09:31.889Z,21.57
2022-12-01T11:12:03.921Z,25.27
2022-12-01T11:14:41.549Z,23.10
2022-12-01T11:17:31.021Z,22.57
2022-12-01T11:19:58.601Z,22.97
2022-12-01T11:22:32.309Z,23.57
2022-12-01T11:25:04.895Z,22.47
2022-12-01T11:27:36.248Z,22.73
2022-12-01T11:30:25.997Z,21.20
2022-12-01T11:33:00.951Z,23.57
2022-12-01T11:35:31.208Z,23.33
2022-12-01T11:40:54.336Z,21.60
2022-12-01T11:43:56.704Z,24.47
2022-12-01T11:46:46.260Z,23.07
2022-12-01T11:49:24.262Z,20.97
2022-12-01T11:51:51.169Z,21.10
2022-12-01T11:54:19.381Z,20.20
2022-12-01T11:56:56.091Z,23.73
2022-12-01T11:59:31.399Z,21.27
2022-12-01T12:02:23.984Z,22.13
2022-12-01T12:04:59.633Z,20.97
2022-12-01T12:07:29.237Z,21.63
2022-12-01T12:10:23.787Z,20.80
2022-12-01T12:12:56.295Z,18.73
2022-12-01T12:15:32.132Z,19.67
2022-12-01T12:18:14.157Z,21.77
2022-12-01T12:20:46.421Z,19.10
2022-12-01T12:23:27.590Z,22.00
2022-12-01T12:26:11.804Z,20.50
2022-12-01T12:28:53.527Z,21.07
2022-12-01T12:31:53.014Z,20.27
2022-12-01T12:34:35.162Z,23.70
2022-12-01T12:37:18.706Z,22.07
2022-12-01T12:39:57.558Z,22.80
2022-12-01T12:42:32.397Z,21.50
2022-12-01T12:45:26.553Z,22.83
2022-12-01T12:48:24.691Z,22.63
2022-12-01T12:51:09.638Z,22.13
2022-12-01T12:53:49.604Z,23.17
2022-12-01T12:56:19.603Z,22.53
2022-12-01T12:59:00.630Z,23.17
2022-12-01T13:01:44.298Z,23.10
2022-12-01T13:04:30.755Z,22.57
2022-12-01T13:07:35.419Z,23.00
2022-12-01T13:10:13.911Z,23.23
2022-12-01T13:12:50.737Z,23.77
2022-12-01T13:15:20.836Z,23.43
2022-12-01T13:18:22.737Z,22.77
2022-12-01T13:20:51.157Z,23.60
2022-12-01T13:23:21.189Z,21.33
2022-12-01T13:25:52.996Z,22.07
2022-12-01T13:28:23.588Z,21.37
2022-12-01T13:31:16.192Z,20.63
2022-12-01T13:34:20.361Z,21.23
2022-12-01T13:36:55.238Z,19.90
2022-12-01T13:39:25.505Z,21.63
2022-12-01T13:42:09.116Z,19.60
2022-12-01T13:44:45.057Z,18.97
2022-12-01T13:47:11.730Z,20.00
2022-12-01T13:49:50.485Z,18.60
2022-12-01T13:52:26.754Z,19.40
2022-12-01T13:55:09.064Z,18.37
2022-12-01T13:57:40.382Z,18.83
2022-12-01T14:00:26.082Z,21.23
2022-12-01T14:03:19.357Z,18.33
2022-12-01T14:06:05.534Z,19.93
2022-12-01T14:09:04.518Z,20.70
2022-12-01T14:11:33.939Z,18.87
2022-12-01T14:14:03.359Z,20.83
2022-12-01T14:16:53.735Z,17.80
2022-12-01T14:19:46.034Z,21.07
2022-12-01T14:22:44.104Z,19.93
2022-12-01T14:25:20.327Z,18.00
2022-12-01T14:27:50.208Z,19.77
2022-12-01T14:30:42.197Z,20.23
2022-12-01T14:33:39.929Z,20.20
2022-12-01T14:36:18.146Z,19.37
2022-12-01T14:38:47.306Z,19.97
2022-12-01T14:41:38.438Z,19.10
2022-12-01T14:44:47.208Z,20.20
2022-12-01T14:47:22.300Z,19.40
2022-12-01T14:50:14.031Z,19.50
2022-12-01T14:52:49.106Z,19.03
2022-12-01T14:55:23.310Z,20.30
2022-12-01T14:57:52.701Z,17.20
2022-12-01T15:00:21.377Z,17.77
2022-12-01T15:03:09.682Z,20.90
2022-12-01T15:05:43.685Z,19.23
2022-12-01T15:11:21.714Z,20.07
2022-12-01T15:13:51.317Z,18.10
2022-12-01T15:16:21.274Z,20.10
2022-12-01T15:18:48.875Z,20.07
2022-12-01T15:21:30.965Z,21.33
2022-12-01T15:24:06.603Z,22.73
2022-12-01T15:26:37.846Z,21.20
2022-12-01T15:29:19.238Z,20.23
2022-12-01T15:31:49.298Z,24.20
2022-12-01T15:34:23.760Z,22.27
2022-12-01T15:36:52.703Z,28.13
2022-12-01T15:39:24.900Z,23.47
2022-12-01T15:41:54.243Z,19.47
2022-12-01T15:44:42.525Z,22.03
2022-12-01T15:47:30.889Z,21.33
2022-12-01T15:49:57.638Z,22.10
2022-12-01T15:52:24.498Z,21.00
2022-12-01T15:54:52.013Z,19.50
2022-12-01T15:57:21.441Z,21.87
2022-12-01T15:59:55.122Z,20.63
2022-12-01T16:02:24.609Z,20.10
2022-12-01T16:05:09.387Z,21.57
2022-12-01T16:08:12.212Z,21.17
2022-12-01T16:10:27.720Z,21.07
2022-12-01T16:13:33.113Z,21.90
2022-12-01T16:15:59.909Z,22.77
2022-12-01T16:18:33.342Z,19.23
2022-12-01T16:21:05.404Z,21.03
2022-12-01T16:23:33.453Z,21.50
2022-12-01T16:26:02.087Z,22.40
2022-12-01T16:28:37.710Z,23.07
2022-12-01T16:31:06.034Z,24.63
2022-12-01T16:33:38.213Z,23.83
2022-12-01T16:36:05.254Z,23.37
2022-12-01T16:38:32.041Z,21.87
2022-12-01T16:41:01.437Z,22.40
2022-12-01T16:43:29.393Z,22.87
2022-12-01T16:46:03.031Z,24.30
2022-12-01T16:48:30.603Z,23.40
2022-12-01T16:51:01.717Z,22.80
2022-12-01T16:53:28.633Z,23.80
2022-12-01T16:56:00.855Z,27.93
2022-12-01T16:58:28.014Z,25.43
2022-12-01T17:00:55.120Z,27.37
2022-12-01T17:03:27.381Z,25.10
2022-12-01T17:05:54.893Z,24.90
2022-12-01T17:08:22.421Z,25.37
2022-12-01T17:10:52.169Z,24.70
2022-12-01T17:13:21.690Z,26.87
2022-12-01T17:15:51.126Z,29.17
2022-12-01T17:18:19.690Z,28.60
2022-12-01T17:20:56.064Z,28.30
2022-12-01T17:23:22.804Z,27.30
2022-12-01T17:25:49.586Z,27.53
2022-12-01T17:28:16.288Z,27.87
2022-12-01T17:30:43.190Z,27.30
2022-12-01T17:33:10.343Z,27.23
2022-12-01T17:35:39.107Z,27.67
2022-12-01T17:38:06.411Z,28.93
2022-12-01T17:40:33.174Z,27.70
2022-12-01T17:42:59.900Z,30.10
2022-12-01T17:45:26.667Z,30.60
2022-12-01T17:47:55.169Z,39.00
2022-12-01T17:50:22.027Z,28.83
2022-12-01T17:52:48.838Z,30.53
2022-12-01T17:55:15.664Z,30.60
2022-12-01T17:57:42.432Z,32.60
2022-12-01T18:00:09.715Z,29.03
2022-12-01T18:02:36.504Z,30.93
2022-12-01T18:05:03.502Z,35.43
2022-12-01T18:07:30.363Z,30.10
2022-12-01T18:09:57.096Z,30.70
2022-12-01T18:12:23.823Z,31.60
2022-12-01T18:14:50.819Z,32.47
2022-12-01T18:17:17.893Z,34.10
2022-12-01T18:19:44.705Z,31.53
2022-12-01T18:22:11.440Z,29.80
2022-12-01T18:24:38.268Z,30.67
2022-12-01T18:27:05.302Z,32.40
2022-12-01T18:29:32.335Z,31.20
2022-12-01T18:32:00.750Z,32.20
2022-12-01T18:34:29.724Z,31.90
2022-12-01T18:36:56.771Z,31.87
2022-12-01T18:39:23.839Z,31.57
2022-12-01T18:41:50.681Z,31.00
2022-12-01T18:44:17.556Z,31.73
2022-12-01T18:46:44.618Z,30.70
2022-12-01T18:49:12.268Z,32.27
2022-12-01T18:51:39.881Z,31.33
2022-12-01T18:54:08.234Z,33.17
2022-12-01T18:56:35.771Z,32.70
2022-12-01T18:59:06.540Z,34.40
2022-12-01T19:01:36.293Z,32.97
2022-12-01T19:04:04.171Z,32.23
2022-12-01T19:06:32.734Z,33.37
2022-12-01T19:09:01.337Z,31.73
2022-12-01T19:11:28.523Z,31.00
2022-12-01T19:13:58.583Z,32.70
2022-12-01T19:16:25.529Z,31.57
2022-12-01T19:18:52.303Z,32.73
2022-12-01T19:21:20.188Z,35.53
2022-12-01T19:23:47.514Z,34.27
2022-12-01T19:26:17.196Z,33.77
2022-12-01T19:28:45.749Z,35.07
2022-12-01T19:31:16.473Z,36.77
2022-12-01T19:33:43.342Z,34.67
2022-12-01T19:36:16.542Z,35.17
2022-12-01T19:38:44.667Z,36.70
2022-12-01T19:41:13.134Z,37.00
2022-12-01T19:43:40.894Z,34.77
2022-12-01T19:46:09.511Z,34.47
2022-12-01T19:48:36.719Z,37.57
2022-12-01T19:51:04.077Z,35.50
2022-12-01T19:53:33.897Z,34.20
2022-12-01T19:56:05.177Z,34.77
2022-12-01T19:58:35.143Z,34.73
2022-12-01T20:01:10.129Z,36.20
2022-12-01T20:03:38.174Z,35.10
2022-12-01T20:06:07.072Z,35.23
2022-12-01T20:08:35.967Z,33.67
2022-12-01T20:11:04.376Z,36.57
2022-12-01T20:13:32.968Z,35.73
2022-12-01T20:16:04.953Z,35.70
2022-12-01T20:18:32.290Z,34.10
2022-12-01T20:21:17.286Z,36.07
2022-12-01T20:23:46.125Z,35.80
2022-12-01T20:26:13.570Z,35.23
2022-12-01T20:28:40.644Z,34.73
2022-12-01T20:31:13.771Z,38.27
2022-12-01T20:33:41.895Z,34.17
2022-12-01T20:36:09.817Z,36.20
2022-12-01T20:38:37.551Z,33.07
2022-12-01T20:41:04.914Z,35.97
2022-12-01T20:43:32.671Z,34.43
2022-12-01T20:45:59.631Z,34.57
2022-12-01T20:48:26.959Z,34.67
2022-12-01T20:50:53.695Z,37.37
2022-12-01T20:53:20.470Z,36.00
2022-12-01T20:55:47.337Z,35.27
2022-12-01T20:58:14.371Z,36.70
2022-12-01T21:00:46.007Z,36.03
2022-12-01T21:03:13.075Z,36.67
2022-12-01T21:05:43.851Z,36.27
2022-12-01T21:08:12.454Z,35.67
2022-12-01T21:13:42.308Z,35.80
2022-12-01T21:16:29.005Z,35.30
2022-12-01T21:19:00.118Z,37.60
2022-12-01T21:21:29.298Z,37.00
2022-12-01T21:24:08.169Z,33.40
2022-12-01T21:26:40.920Z,38.13
2022-12-01T21:29:38.901Z,35.93
2022-12-01T21:32:41.148Z,35.17
2022-12-01T21:35:19.507Z,34.67
2022-12-01T21:37:47.307Z,35.63
2022-12-01T21:40:17.608Z,35.43
2022-12-01T21:42:44.725Z,36.73
2022-12-01T21:45:34.803Z,31.70
2022-12-01T21:48:13.122Z,34.93
2022-12-01T21:50:39.898Z,33.67
2022-12-01T21:53:16.548Z,34.23
2022-12-01T21:55:45.469Z,35.07
2022-12-01T21:58:24.535Z,31.40
2022-12-01T22:00:54.461Z,31.67
2022-12-01T22:03:33.292Z,34.83
2022-12-01T22:06:28.397Z,32.10
2022-12-01T22:08:51.792Z,32.43
2022-12-01T22:11:26.923Z,30.10
2022-12-01T22:14:09.019Z,31.37
2022-12-01T22:16:40.286Z,31.10
2022-12-01T22:19:30.270Z,32.73
2022-12-01T22:22:09.153Z,28.50
2022-12-01T22:24:50.925Z,25.50
2022-12-01T22:27:20.645Z,29.60
2022-12-01T22:29:49.232Z,29.73
2022-12-01T22:32:15.943Z,28.83
2022-12-01T22:34:51.064Z,25.10
2022-12-01T22:37:29.821Z,25.60
2022-12-01T22:39:57.231Z,26.97
2022-12-01T22:42:41.847Z,26.00
2022-12-01T22:45:24.843Z,24.67
2022-12-01T22:47:56.267Z,24.90
2022-12-01T22:50:32.333Z,24.63
2022-12-01T22:53:10.337Z,26.63
2022-12-01T22:55:37.144Z,24.80
2022-12-01T22:58:22.706Z,26.70
2022-12-01T23:00:49.602Z,25.77
2022-12-01T23:03:16.662Z,23.60
2022-12-01T23:05:44.699Z,25.00
2022-12-01T23:08:19.919Z,24.63
2022-12-01T23:10:46.658Z,25.33
2022-12-01T23:13:24.401Z,23.30
2022-12-01T23:15:54.129Z,23.90
2022-12-01T23:18:33.548Z,22.83
2022-12-01T23:21:01.808Z,22.57
2022-12-01T23:23:29.798Z,23.73
2022-12-01T23:25:56.582Z,24.50
2022-12-01T23:28:24.846Z,24.83
2022-12-01T23:30:56.381Z,22.23
2022-12-01T23:33:25.058Z,22.43
2022-12-01T23:36:25.870Z,25.17
2022-12-01T23:38:57.852Z,25.30
2022-12-01T23:41:44.543Z,23.50
2022-12-01T23:44:17.217Z,23.70
2022-12-01T23:46:44.213Z,21.77
2022-12-01T23:49:15.382Z,22.63
2022-12-01T23:51:49.687Z,23.50
2022-12-01T23:54:21.170Z,23.10
2022-12-01T23:56:53.587Z,22.37
2022-12-01T23:59:21.353Z,22.20
